createdAt,value
2019-03-22T00:05:30.501Z,10.87
2019-03-22T00:12:15.354Z,12.23
2019-03-22T00:19:00.297Z,11.47
2019-03-22T00:25:45.251Z,10.77
2019-03-22T00:32:30.111Z,14.87
2019-03-22T00:39:14.966Z,13.60
2019-03-22T00:46:02.581Z,14.77
2019-03-22T00:52:47.230Z,11.97
2019-03-22T00:59:32.115Z,11.27
2019-03-22T01:06:17.062Z,11.73
2019-03-22T01:13:02.891Z,12.33
2019-03-22T01:19:48.124Z,10.83
2019-03-22T01:26:34.114Z,13.00
2019-03-22T01:33:19.067Z,13.03
2019-03-22T01:40:09.850Z,14.13
2019-03-22T01:46:54.754Z,13.53
2019-03-22T01:53:39.614Z,15.87
2019-03-22T02:00:24.557Z,15.97
2019-03-22T02:07:09.687Z,13.47
2019-03-22T02:13:54.542Z,16.10
2019-03-22T02:20:40.559Z,12.03
2019-03-22T02:27:26.524Z,11.83
2019-03-22T02:34:11.572Z,14.20
2019-03-22T02:40:56.424Z,11.17
2019-03-22T02:47:41.283Z,14.77
2019-03-22T02:54:27.705Z,12.53
2019-03-22T03:01:12.656Z,10.47
2019-03-22T03:07:57.515Z,12.25
2019-03-22T03:14:42.363Z,14.80
2019-03-22T03:21:30.103Z,13.73
2019-03-22T03:28:14.974Z,15.23
2019-03-22T03:34:59.893Z,17.57
2019-03-22T03:41:45.007Z,15.77
2019-03-22T03:48:30.119Z,16.47
2019-03-22T03:55:15.259Z,19.13
2019-03-22T04:02:00.205Z,15.05
2019-03-22T04:08:46.718Z,14.47
2019-03-22T04:15:31.796Z,16.50
2019-03-22T04:22:16.755Z,18.73
2019-03-22T04:29:08.000Z,15.30
2019-03-22T04:35:48.377Z,18.33
2019-03-22T04:42:33.311Z,17.03
2019-03-22T04:49:21.707Z,16.13
2019-03-22T04:56:09.674Z,17.40
2019-03-22T05:02:55.279Z,15.03
2019-03-22T05:09:43.018Z,15.57
2019-03-22T05:16:28.988Z,17.37
2019-03-22T05:23:15.987Z,16.90
2019-03-22T05:30:02.709Z,18.33
2019-03-22T05:36:47.644Z,17.93
2019-03-22T05:43:32.643Z,21.33
2019-03-22T05:50:17.508Z,21.93
2019-03-22T05:57:12.805Z,18.60
2019-03-22T06:03:49.042Z,14.80
2019-03-22T06:10:33.914Z,19.35
2019-03-22T06:17:18.876Z,19.52
2019-03-22T06:24:03.898Z,20.13
2019-03-22T06:30:48.758Z,15.10
2019-03-22T06:37:33.615Z,14.90
2019-03-22T06:44:18.472Z,16.33
2019-03-22T06:51:03.386Z,11.60
2019-03-22T06:57:48.252Z,12.05
2019-03-22T07:04:33.119Z,10.60
2019-03-22T07:11:17.983Z,12.75
2019-03-22T07:18:02.930Z,13.10
2019-03-22T07:24:48.298Z,16.25
2019-03-22T07:31:35.734Z,10.95
2019-03-22T07:38:19.843Z,14.33
2019-03-22T07:45:06.327Z,11.57
2019-03-22T07:51:51.863Z,13.90
2019-03-22T07:58:36.731Z,17.92
2019-03-22T08:05:21.811Z,15.35
2019-03-22T08:12:06.766Z,12.13
2019-03-22T08:18:51.715Z,15.03
2019-03-22T08:25:36.730Z,14.93
2019-03-22T08:32:21.675Z,13.98
2019-03-22T08:39:08.556Z,12.73
2019-03-22T08:45:53.503Z,12.82
2019-03-22T08:52:38.439Z,13.00
2019-03-22T08:59:24.383Z,14.40
2019-03-22T09:06:09.328Z,14.80
2019-03-22T09:12:54.462Z,14.50
2019-03-22T09:19:39.406Z,15.00
2019-03-22T09:26:24.359Z,14.43
2019-03-22T09:33:09.288Z,13.98
2019-03-22T09:39:54.456Z,16.85
2019-03-22T09:46:39.370Z,16.65
2019-03-22T09:53:24.294Z,19.05
2019-03-22T10:00:12.347Z,14.10
2019-03-22T10:06:57.290Z,17.98
2019-03-22T10:13:42.349Z,18.10
2019-03-22T10:20:27.246Z,15.90
2019-03-22T10:27:12.201Z,16.52
2019-03-22T10:33:57.766Z,17.12
2019-03-22T10:40:42.975Z,16.80
2019-03-22T10:47:28.103Z,16.03
2019-03-22T10:54:13.043Z,14.85
2019-03-22T11:00:57.991Z,15.58
2019-03-22T11:07:42.931Z,15.55
2019-03-22T11:14:27.802Z,13.53
2019-03-22T11:21:12.680Z,10.93
2019-03-22T11:27:57.580Z,14.43
2019-03-22T11:34:43.166Z,12.33
2019-03-22T11:41:28.163Z,14.40
2019-03-22T11:48:13.191Z,13.50
2019-03-22T11:54:58.668Z,13.13
2019-03-22T12:01:44.210Z,10.65
2019-03-22T12:08:30.271Z,13.40
2019-03-22T12:15:21.046Z,13.97
2019-03-22T12:22:07.271Z,11.75
2019-03-22T12:28:53.106Z,14.55
2019-03-22T12:35:40.102Z,15.80
2019-03-22T12:42:25.092Z,13.68
2019-03-22T12:49:10.400Z,14.83
2019-03-22T12:55:55.480Z,12.98
2019-03-22T13:02:42.436Z,12.68
2019-03-22T13:09:27.204Z,12.65
2019-03-22T13:16:12.079Z,14.00
2019-03-22T13:22:57.399Z,11.97
2019-03-22T13:29:42.475Z,10.45
2019-03-22T13:36:27.487Z,8.28
2019-03-22T13:43:14.027Z,7.55
2019-03-22T13:49:58.946Z,14.47
2019-03-22T13:56:43.931Z,9.55
2019-03-22T14:03:29.076Z,25.27
2019-03-22T14:10:33.623Z,15.40
2019-03-22T14:17:18.638Z,11.40
2019-03-22T14:24:06.037Z,14.20
2019-03-22T14:30:50.242Z,11.12
2019-03-22T14:37:37.315Z,13.48
2019-03-22T14:44:25.483Z,16.37
2019-03-22T14:51:09.518Z,13.90
2019-03-22T14:57:54.550Z,11.35
2019-03-22T15:04:42.282Z,10.80
2019-03-22T15:11:27.159Z,9.55
2019-03-22T15:18:19.523Z,8.55
2019-03-22T15:25:20.215Z,9.48
2019-03-22T15:32:06.781Z,7.20
2019-03-22T15:39:08.362Z,9.33
2019-03-22T15:45:53.508Z,10.90
2019-03-22T15:52:38.504Z,8.75
2019-03-22T15:59:25.536Z,9.58
2019-03-22T16:06:11.018Z,11.15
2019-03-22T16:12:55.977Z,10.93
2019-03-22T16:19:40.859Z,13.15
2019-03-22T16:26:25.800Z,13.62
2019-03-22T16:33:10.771Z,12.03
2019-03-22T16:39:55.769Z,16.57
2019-03-22T16:46:40.716Z,18.02
2019-03-22T16:53:25.600Z,15.20
2019-03-22T17:00:11.675Z,14.55
2019-03-22T17:06:56.622Z,20.80
2019-03-22T17:13:41.571Z,14.13
2019-03-22T17:20:26.508Z,18.00
2019-03-22T17:27:13.130Z,17.30
2019-03-22T17:33:58.065Z,16.27
2019-03-22T17:40:42.946Z,18.90
2019-03-22T17:47:27.897Z,15.23
2019-03-22T17:54:12.768Z,16.83
2019-03-22T18:00:57.804Z,17.43
2019-03-22T18:07:42.743Z,18.57
2019-03-22T18:14:28.686Z,16.67
2019-03-22T18:21:13.811Z,17.83
2019-03-22T18:27:58.684Z,16.93
2019-03-22T18:34:43.555Z,16.87
2019-03-22T18:41:28.422Z,23.10
2019-03-22T18:48:13.507Z,28.20
2019-03-22T18:54:58.435Z,24.20
2019-03-22T19:01:43.373Z,22.30
2019-03-22T19:08:29.282Z,19.93
2019-03-22T19:15:15.058Z,19.23
2019-03-22T19:21:59.921Z,25.77
2019-03-22T19:28:44.786Z,26.07
2019-03-22T19:35:30.721Z,24.03
2019-03-22T19:42:15.664Z,26.83
2019-03-22T19:49:00.602Z,23.87
2019-03-22T19:55:45.932Z,25.33
2019-03-22T20:02:31.265Z,27.90
2019-03-22T20:09:17.395Z,25.57
2019-03-22T20:16:02.383Z,23.38
2019-03-22T20:22:47.328Z,27.27
2019-03-22T20:29:32.267Z,26.93
2019-03-22T20:36:18.306Z,26.20
2019-03-22T20:43:03.232Z,30.08
2019-03-22T20:49:48.298Z,28.10
2019-03-22T20:56:33.159Z,27.87
2019-03-22T21:03:18.035Z,27.40
2019-03-22T21:10:03.248Z,31.97
2019-03-22T21:16:48.170Z,26.53
2019-03-22T21:23:36.620Z,29.87
2019-03-22T21:30:22.436Z,29.50
2019-03-22T21:37:07.651Z,26.00
2019-03-22T21:43:52.714Z,28.27
2019-03-22T21:50:37.681Z,28.23
2019-03-22T21:57:22.835Z,31.60
2019-03-22T22:04:08.362Z,33.10
2019-03-22T22:10:59.658Z,32.70
2019-03-22T22:17:41.471Z,30.07
2019-03-22T22:24:26.331Z,28.73
2019-03-22T22:31:12.734Z,33.43
2019-03-22T22:37:57.866Z,27.48
2019-03-22T22:44:42.736Z,31.33
2019-03-22T22:51:27.703Z,32.80
2019-03-22T22:58:13.311Z,34.50
2019-03-22T23:04:58.842Z,28.90
2019-03-22T23:11:44.378Z,37.70
2019-03-22T23:18:29.306Z,34.27
2019-03-22T23:25:15.605Z,50.40
2019-03-22T23:32:00.526Z,27.57
2019-03-22T23:38:45.391Z,32.83
2019-03-22T23:45:30.247Z,29.97
2019-03-22T23:52:15.175Z,33.87
2019-03-22T23:59:00.034Z,27.57
